Holly Ridge, Mississippi
Current Conditions -  °F | °C
As of 12:53 AM on Wednesday 28 Jan 2015 (Local Time) from KGLH Reporting Station
Clear Clear  
Wind Chill:   Ceiling: Unl
Heat Index:   Visibility: 10mi
Dew Point:   Wind: 9mph
Humidity: 71%   Direction: 90°E
Pressure: 30.19"   Gusts: NA
Location:  33.45°N, 90.75°W
Report Text: KGLH 280653Z AUTO 09008KT 10SM CLR 08/03 A3019 RMK AO2 SLP231 T00780028
Loading
Personal Weather Stations






























Interactive Weather Map New forecast layout! Learn more

10-Day Weather Forecast

Advertisements
Track Severe Weather on mobile